KBNW/BNW METAR and TAF weather

Enter ICAO airport designator
Station Type Date Time Source
KBNW METAR 2019/05/20 10:35 UTC NOAA

KBNW 201035Z AUTO 36006KT 10SM OVC020 05/04 A3009 RMK AO2


Station Type Date Time Source
KBNW Decoded METAR 2019/05/20 10:35 UTC NOAA

Boone Municipal, IA, United States (KBNW) 42-03N 093-51W
May 20, 2019 - 06:35 AM EDT / 2019.05.20 1035 UTC
Wind: from the N (360 degrees) at 7 MPH (6 KT):0
Visibility: 10 mile(s):0
Sky conditions: overcast
Temperature: 41 F (5 C)
Dew Point: 39 F (4 C)
Relative Humidity: 93%
Pressure (altimeter): 30.09 in. Hg (1018 hPa)
ob: KBNW 201035Z AUTO 36006KT 10SM OVC020 05/04 A3009 RMK AO2
cycle: 10

Station Type Date Time Source
KBNW TAF UTC NOAA

Error!

Example: see airport list